sensor_id;sensor_type;location;lat;lon;timestamp;temperature;humidity
16728;DHT22;8482;54.396;18.590;2024-03-23T19:29:45;7.10;99.90
16728;DHT22;8482;54.396;18.590;2024-03-23T19:32:15;7.10;99.90
16728;DHT22;8482;54.396;18.590;2024-03-23T19:34:42;7.00;99.90
16728;DHT22;8482;54.396;18.590;2024-03-23T19:37:08;7.00;99.90
16728;DHT22;8482;54.396;18.590;2024-03-23T19:39:34;7.00;99.90
16728;DHT22;8482;54.396;18.590;2024-03-23T19:42:00;7.00;99.90
16728;DHT22;8482;54.396;18.590;2024-03-23T19:44:26;7.00;99.90
16728;DHT22;8482;54.396;18.590;2024-03-23T19:46:52;7.00;99.90
16728;DHT22;8482;54.396;18.590;2024-03-23T19:49:18;6.90;99.90
16728;DHT22;8482;54.396;18.590;2024-03-23T19:51:45;6.90;99.90
16728;DHT22;8482;54.396;18.590;2024-03-23T19:54:13;6.90;99.90
16728;DHT22;8482;54.396;18.590;2024-03-23T19:56:41;6.90;99.90
16728;DHT22;8482;54.396;18.590;2024-03-23T19:59:07;6.90;99.90
16728;DHT22;8482;54.396;18.590;2024-03-23T20:01:34;6.90;99.90
16728;DHT22;8482;54.396;18.590;2024-03-23T20:04:00;6.90;99.90
16728;DHT22;8482;54.396;18.590;2024-03-23T20:06:26;6.90;99.90
16728;DHT22;8482;54.396;18.590;2024-03-23T20:08:52;6.90;99.90
16728;DHT22;8482;54.396;18.590;2024-03-23T20:11:22;6.90;99.90
16728;DHT22;8482;54.396;18.590;2024-03-23T20:13:49;6.90;99.90
16728;DHT22;8482;54.396;18.590;2024-03-23T20:16:15;6.90;99.90
16728;DHT22;8482;54.396;18.590;2024-03-23T20:18:41;6.90;99.90
16728;DHT22;8482;54.396;18.590;2024-03-23T20:21:07;6.80;99.90
16728;DHT22;8482;54.396;18.590;2024-03-23T20:23:32;6.80;99.90
16728;DHT22;8482;54.396;18.590;2024-03-23T20:25:59;6.80;99.90
16728;DHT22;8482;54.396;18.590;2024-03-23T20:28:26;6.80;99.90
16728;DHT22;8482;54.396;18.590;2024-03-23T20:30:59;6.80;99.90
16728;DHT22;8482;54.396;18.590;2024-03-23T20:33:27;6.80;99.90
16728;DHT22;8482;54.396;18.590;2024-03-23T20:35:53;6.70;99.90
16728;DHT22;8482;54.396;18.590;2024-03-23T20:38:21;6.70;99.90
16728;DHT22;8482;54.396;18.590;2024-03-23T20:40:54;6.70;99.90
16728;DHT22;8482;54.396;18.590;2024-03-23T20:43:28;6.70;99.90
16728;DHT22;8482;54.396;18.590;2024-03-23T20:45:59;6.60;99.90
16728;DHT22;8482;54.396;18.590;2024-03-23T20:48:27;6.70;99.90
16728;DHT22;8482;54.396;18.590;2024-03-23T20:50:58;6.70;99.90
16728;DHT22;8482;54.396;18.590;2024-03-23T20:53:23;6.60;99.90
16728;DHT22;8482;54.396;18.590;2024-03-23T20:55:54;6.60;99.90
16728;DHT22;8482;54.396;18.590;2024-03-23T20:58:22;6.60;99.90
16728;DHT22;8482;54.396;18.590;2024-03-23T21:00:49;6.60;99.90
16728;DHT22;8482;54.396;18.590;2024-03-23T21:03:16;6.50;99.90
16728;DHT22;8482;54.396;18.590;2024-03-23T21:05:43;6.60;99.90
16728;DHT22;8482;54.396;18.590;2024-03-23T21:08:13;6.50;99.90
16728;DHT22;8482;54.396;18.590;2024-03-23T21:10:39;6.50;99.90
16728;DHT22;8482;54.396;18.590;2024-03-23T21:13:05;6.50;99.90
16728;DHT22;8482;54.396;18.590;2024-03-23T21:15:31;6.50;99.90
16728;DHT22;8482;54.396;18.590;2024-03-23T21:18:01;6.50;99.90
16728;DHT22;8482;54.396;18.590;2024-03-23T21:20:27;6.50;99.90
16728;DHT22;8482;54.396;18.590;2024-03-23T21:22:52;6.40;99.90
16728;DHT22;8482;54.396;18.590;2024-03-23T21:25:19;6.40;99.90
16728;DHT22;8482;54.396;18.590;2024-03-23T21:27:44;6.40;99.90
16728;DHT22;8482;54.396;18.590;2024-03-23T21:30:10;6.40;99.90
16728;DHT22;8482;54.396;18.590;2024-03-23T21:32:36;6.40;99.90
16728;DHT22;8482;54.396;18.590;2024-03-23T21:35:02;6.30;99.90
16728;DHT22;8482;54.396;18.590;2024-03-23T21:37:28;6.30;99.90
16728;DHT22;8482;54.396;18.590;2024-03-23T21:39:54;6.30;99.90
16728;DHT22;8482;54.396;18.590;2024-03-23T21:42:20;6.30;99.90
16728;DHT22;8482;54.396;18.590;2024-03-23T21:44:45;6.30;99.90
16728;DHT22;8482;54.396;18.590;2024-03-23T21:47:11;6.20;99.90
16728;DHT22;8482;54.396;18.590;2024-03-23T21:49:38;6.20;99.90
16728;DHT22;8482;54.396;18.590;2024-03-23T21:52:04;6.20;99.90
16728;DHT22;8482;54.396;18.590;2024-03-23T21:54:30;6.20;99.90
16728;DHT22;8482;54.396;18.590;2024-03-23T21:56:56;6.10;99.90
16728;DHT22;8482;54.396;18.590;2024-03-23T21:59:22;6.10;99.90
16728;DHT22;8482;54.396;18.590;2024-03-23T22:01:49;6.10;99.90
16728;DHT22;8482;54.396;18.590;2024-03-23T22:04:14;6.10;99.90
16728;DHT22;8482;54.396;18.590;2024-03-23T22:06:40;6.10;99.90
16728;DHT22;8482;54.396;18.590;2024-03-23T22:09:06;6.10;99.90
16728;DHT22;8482;54.396;18.590;2024-03-23T22:11:33;6.00;99.90
16728;DHT22;8482;54.396;18.590;2024-03-23T22:14:00;6.00;99.90
16728;DHT22;8482;54.396;18.590;2024-03-23T22:16:26;6.00;99.90
16728;DHT22;8482;54.396;18.590;2024-03-23T22:18:52;5.90;99.90
16728;DHT22;8482;54.396;18.590;2024-03-23T22:21:17;5.90;99.90
16728;DHT22;8482;54.396;18.590;2024-03-23T22:23:43;5.90;99.90
16728;DHT22;8482;54.396;18.590;2024-03-23T22:26:09;5.90;99.90
